Time;durP1;ratioP1;P1;durP2;ratioP2;P2;SDS_P1;SDS_P2;PMS_P1;PMS_P2;Temp;Humidity;BMP_temperature;BMP_pressure;BME280_temperature;BME280_humidity;BME280_pressure;Samples;Min_cycle;Max_cycle;Signal;HPM_P1;HPM_P2
2023/10/29 00:01:58;;;;;;;1.52;0.60;;;23.10;58.40;;;;;;6060055;23;87237;-89
2023/10/29 00:04:26;;;;;;;0.60;0.55;;;23.00;58.60;;;;;;6058187;23;90099;-88
2023/10/29 00:06:59;;;;;;;1.05;0.70;;;23.00;58.70;;;;;;6059145;23;86938;-88
2023/10/29 00:09:25;;;;;;;0.50;0.50;;;23.00;58.60;;;;;;6058786;23;88232;-87
2023/10/29 00:11:50;;;;;;;1.92;0.82;;;23.00;58.60;;;;;;6057564;23;91404;-89
2023/10/29 00:14:16;;;;;;;0.50;0.50;;;23.00;58.50;;;;;;6059614;23;90070;-88
2023/10/29 00:16:41;;;;;;;0.77;0.63;;;23.00;58.60;;;;;;6058849;23;87500;-89
2023/10/29 00:19:07;;;;;;;0.52;0.50;;;23.00;58.40;;;;;;6048900;23;89453;-88
2023/10/29 00:21:34;;;;;;;1.65;0.75;;;23.00;58.50;;;;;;6058311;23;90683;-87
2023/10/29 00:24:00;;;;;;;1.15;0.60;;;23.00;58.50;;;;;;6059728;23;90152;-87
2023/10/29 00:26:25;;;;;;;1.20;0.70;;;23.00;58.50;;;;;;6059330;23;87623;-88
2023/10/29 00:28:51;;;;;;;0.88;0.65;;;22.90;58.60;;;;;;6059735;23;88605;-88
2023/10/29 00:31:17;;;;;;;1.48;0.80;;;22.90;58.60;;;;;;6067546;23;88106;-88
2023/10/29 00:33:42;;;;;;;0.85;0.70;;;22.90;58.50;;;;;;6059079;23;89186;-88
2023/10/29 00:36:09;;;;;;;1.38;0.85;;;22.90;58.50;;;;;;6062010;23;88249;-88
2023/10/29 00:38:34;;;;;;;0.65;0.60;;;22.90;58.40;;;;;;6058363;23;89050;-88
2023/10/29 00:41:00;;;;;;;0.63;0.55;;;22.80;58.60;;;;;;6061492;23;88341;-88
2023/10/29 00:43:26;;;;;;;1.35;0.80;;;22.80;58.80;;;;;;6061661;23;87811;-88
2023/10/29 00:45:55;;;;;;;1.33;0.90;;;22.90;58.80;;;;;;6061352;23;87291;-88
2023/10/29 00:48:21;;;;;;;0.65;0.65;;;22.90;58.70;;;;;;6058444;23;90215;-88
2023/10/29 00:50:56;;;;;;;1.20;0.60;;;22.80;58.60;;;;;;6061451;23;87864;-88
2023/10/29 00:53:21;;;;;;;0.85;0.70;;;22.80;58.60;;;;;;6061923;23;88218;-87
2023/10/29 00:55:48;;;;;;;0.77;0.60;;;22.80;58.60;;;;;;6058226;23;87483;-88
2023/10/29 00:58:13;;;;;;;0.70;0.50;;;22.80;58.80;;;;;;6057982;23;88086;-88
2023/10/29 01:00:39;;;;;;;1.05;0.57;;;22.80;58.70;;;;;;6059583;23;89690;-88
2023/10/29 01:03:05;;;;;;;0.88;0.60;;;22.80;58.60;;;;;;6059325;23;88938;-87
2023/10/29 01:05:31;;;;;;;1.50;0.75;;;22.80;58.70;;;;;;6060825;23;87699;-88
2023/10/29 01:07:56;;;;;;;0.60;0.60;;;22.80;58.70;;;;;;6059818;23;89471;-89
2023/10/29 01:10:22;;;;;;;0.98;0.80;;;22.80;58.70;;;;;;6058584;23;90246;-87
2023/10/29 01:12:48;;;;;;;0.93;0.73;;;22.80;58.60;;;;;;6059575;23;90641;-88
2023/10/29 01:15:14;;;;;;;0.60;0.60;;;22.80;58.50;;;;;;6060181;23;87454;-88
2023/10/29 01:17:39;;;;;;;1.23;0.45;;;22.70;58.40;;;;;;6064011;23;86435;-89
2023/10/29 01:20:05;;;;;;;0.77;0.70;;;22.80;58.60;;;;;;6060240;23;88142;-88
2023/10/29 01:22:33;;;;;;;0.60;0.60;;;22.70;58.50;;;;;;6058552;23;88909;-88
2023/10/29 01:24:58;;;;;;;1.02;0.70;;;22.70;58.60;;;;;;6059982;23;88421;-89
2023/10/29 01:27:24;;;;;;;1.00;0.73;;;22.70;58.70;;;;;;6060041;23;89375;-88
2023/10/29 01:29:50;;;;;;;0.82;0.57;;;22.70;59.00;;;;;;6062139;23;88026;-88
2023/10/29 01:32:15;;;;;;;0.68;0.52;;;22.70;58.80;;;;;;6060869;23;90078;-88
2023/10/29 01:34:41;;;;;;;2.05;0.80;;;22.70;58.90;;;;;;6061546;23;87082;-88
2023/10/29 01:37:24;;;;;;;0.80;0.60;;;22.70;58.70;;;;;;6062374;23;87488;-88
2023/10/29 01:39:50;;;;;;;0.98;0.57;;;22.70;59.40;;;;;;6060074;23;90433;-89
2023/10/29 01:42:16;;;;;;;0.60;0.60;;;22.70;58.60;;;;;;6059419;23;90227;-88
2023/10/29 01:44:42;;;;;;;0.80;0.65;;;22.70;58.70;;;;;;6060785;23;87366;-88
2023/10/29 01:47:07;;;;;;;1.83;0.90;;;22.60;58.90;;;;;;6058669;23;88315;-89
2023/10/29 01:49:33;;;;;;;1.00;0.60;;;22.60;58.80;;;;;;6059771;23;88700;-88
2023/10/29 01:51:59;;;;;;;1.33;0.82;;;22.60;58.70;;;;;;6058672;23;90941;-88
2023/10/29 01:54:25;;;;;;;0.52;0.50;;;22.60;58.90;;;;;;6062344;23;86986;-89
2023/10/29 01:56:50;;;;;;;0.55;0.50;;;22.60;58.90;;;;;;6060539;23;89593;-88
2023/10/29 01:59:16;;;;;;;1.75;0.70;;;22.60;58.70;;;;;;6061969;23;87141;-88
2023/10/29 02:01:42;;;;;;;0.95;0.60;;;22.60;58.60;;;;;;6062826;23;88183;-87
2023/10/29 02:04:11;;;;;;;0.60;0.50;;;22.60;58.70;;;;;;6059406;23;87631;-91
2023/10/29 02:06:39;;;;;;;0.52;0.40;;;22.60;58.80;;;;;;6058603;23;86630;-88
2023/10/29 02:09:12;;;;;;;1.33;0.60;;;22.60;58.80;;;;;;6052964;23;90156;-88
2023/10/29 02:11:48;;;;;;;1.00;0.68;;;22.60;58.80;;;;;;6053851;23;90424;-89
2023/10/29 02:14:13;;;;;;;0.68;0.60;;;22.60;58.80;;;;;;6054997;23;87961;-89
2023/10/29 02:16:40;;;;;;;0.80;0.65;;;22.60;58.80;;;;;;6053643;23;89252;-88
2023/10/29 02:19:06;;;;;;;0.60;0.50;;;22.60;58.80;;;;;;6053564;23;90889;-88
2023/10/29 02:21:34;;;;;;;0.75;0.60;;;22.60;58.80;;;;;;6056225;23;87724;-88
2023/10/29 02:24:01;;;;;;;3.72;0.57;;;22.50;58.70;;;;;;6048105;23;87365;-88
2023/10/29 02:26:27;;;;;;;1.35;0.70;;;22.60;58.70;;;;;;6075023;23;87160;-89
2023/10/29 02:28:53;;;;;;;0.85;0.60;;;22.50;58.70;;;;;;6057006;23;88088;-88
2023/10/29 02:31:20;;;;;;;0.77;0.70;;;22.50;58.80;;;;;;6057585;23;87595;-89
2023/10/29 02:33:48;;;;;;;0.75;0.60;;;22.50;58.60;;;;;;6056094;23;87826;-89
2023/10/29 02:36:14;;;;;;;0.95;0.63;;;22.50;58.70;;;;;;6053118;23;89490;-88
2023/10/29 02:38:42;;;;;;;0.70;0.50;;;22.50;58.80;;;;;;6057074;23;89552;-89
2023/10/29 02:41:08;;;;;;;2.15;0.60;;;22.50;58.80;;;;;;6057757;23;88235;-88
2023/10/29 02:43:34;;;;;;;1.23;0.98;;;22.50;58.70;;;;;;6056959;23;87244;-88
2023/10/29 02:46:00;;;;;;;1.05;0.80;;;22.50;58.70;;;;;;6054624;23;89584;-88
2023/10/29 02:48:30;;;;;;;1.17;0.52;;;22.50;59.30;;;;;;6078274;23;88888;-88
2023/10/29 02:50:59;;;;;;;1.40;0.82;;;22.40;58.70;;;;;;6057850;23;88047;-88
2023/10/29 02:53:24;;;;;;;0.85;0.68;;;22.40;58.70;;;;;;6057822;23;87493;-88
2023/10/29 02:55:50;;;;;;;0.90;0.60;;;22.40;58.80;;;;;;6054553;23;89226;-89
2023/10/29 02:58:15;;;;;;;1.13;0.90;;;22.40;58.70;;;;;;6054339;23;90259;-88
2023/10/29 03:00:41;;;;;;;0.60;0.60;;;22.40;58.80;;;;;;6053197;23;90001;-88
2023/10/29 03:03:07;;;;;;;0.43;0.43;;;22.40;58.60;;;;;;6053701;23;88427;-88
2023/10/29 03:05:32;;;;;;;0.60;0.60;;;22.40;58.80;;;;;;6056437;23;87448;-89
2023/10/29 03:07:59;;;;;;;0.40;0.40;;;22.40;58.70;;;;;;6054637;23;89741;-87
2023/10/29 03:10:25;;;;;;;0.70;0.70;;;22.40;58.70;;;;;;6056677;23;87283;-89
2023/10/29 03:12:51;;;;;;;0.98;0.80;;;22.40;58.80;;;;;;6054431;23;87765;-88
2023/10/29 03:15:17;;;;;;;0.60;0.50;;;22.40;58.90;;;;;;6055338;23;89019;-89
2023/10/29 03:17:43;;;;;;;0.68;0.52;;;22.40;58.70;;;;;;6058055;23;88099;-88
2023/10/29 03:20:11;;;;;;;0.80;0.60;;;22.40;58.70;;;;;;6057965;23;86740;-89
2023/10/29 03:22:36;;;;;;;1.90;0.70;;;22.40;58.80;;;;;;6039975;23;87486;-88
2023/10/29 03:25:02;;;;;;;0.50;0.50;;;22.40;58.90;;;;;;6056513;23;87323;-88
2023/10/29 03:27:28;;;;;;;0.50;0.50;;;22.40;58.90;;;;;;6056119;23;88739;-88
2023/10/29 03:29:53;;;;;;;0.70;0.70;;;22.40;58.80;;;;;;6055083;23;91374;-88
2023/10/29 03:32:37;;;;;;;0.40;0.40;;;22.40;58.90;;;;;;6056024;23;87014;-89
2023/10/29 03:35:04;;;;;;;1.05;0.63;;;22.40;58.80;;;;;;6055428;23;91531;-89
2023/10/29 03:37:29;;;;;;;0.77;0.55;;;22.40;59.00;;;;;;6054344;23;91084;-88
2023/10/29 03:39:55;;;;;;;0.90;0.70;;;22.40;58.90;;;;;;6057280;23;88175;-89
2023/10/29 03:42:20;;;;;;;0.32;0.32;;;22.40;59.00;;;;;;6056497;23;87192;-89
2023/10/29 03:44:46;;;;;;;0.80;0.57;;;22.40;58.80;;;;;;6052802;23;90190;-88
2023/10/29 03:47:11;;;;;;;0.52;0.50;;;22.40;58.90;;;;;;6055137;23;87935;-89
2023/10/29 03:49:37;;;;;;;0.65;0.50;;;22.40;58.90;;;;;;6056403;23;87726;-89
2023/10/29 03:52:03;;;;;;;0.88;0.68;;;22.40;58.90;;;;;;6055504;23;89129;-89
2023/10/29 03:54:28;;;;;;;0.65;0.60;;;22.30;58.80;;;;;;6054437;23;88696;-89
2023/10/29 03:56:54;;;;;;;1.30;0.77;;;22.30;58.80;;;;;;6052862;23;90237;-88
2023/10/29 03:59:20;;;;;;;1.00;0.70;;;22.40;58.90;;;;;;6055406;23;90029;-89
2023/10/29 04:01:45;;;;;;;1.13;0.70;;;22.30;59.00;;;;;;6057279;23;87331;-88
2023/10/29 04:04:11;;;;;;;0.60;0.52;;;22.30;58.90;;;;;;6054389;23;89171;-89
2023/10/29 04:06:36;;;;;;;1.52;0.60;;;22.30;59.00;;;;;;6057299;23;88151;-89
2023/10/29 04:09:02;;;;;;;0.85;0.60;;;22.30;58.80;;;;;;6057418;23;87730;-88
2023/10/29 04:11:28;;;;;;;0.63;0.60;;;22.30;58.80;;;;;;6057614;23;87339;-89
2023/10/29 04:13:58;;;;;;;0.55;0.55;;;22.30;59.00;;;;;;6037207;23;88433;-88
2023/10/29 04:16:29;;;;;;;0.80;0.50;;;22.30;59.00;;;;;;6053373;23;88968;-88
2023/10/29 04:18:54;;;;;;;0.52;0.52;;;22.30;58.90;;;;;;6055804;23;87521;-89
2023/10/29 04:21:20;;;;;;;0.77;0.60;;;22.30;58.90;;;;;;6062805;23;87508;-89
2023/10/29 04:23:45;;;;;;;0.50;0.50;;;22.30;58.90;;;;;;6055598;23;87433;-89
2023/10/29 04:26:11;;;;;;;0.77;0.60;;;22.30;58.80;;;;;;6054715;23;90330;-88
2023/10/29 04:28:37;;;;;;;0.40;0.40;;;22.30;58.80;;;;;;6057101;23;87335;-89
2023/10/29 04:31:02;;;;;;;0.75;0.50;;;22.30;58.70;;;;;;6052899;23;87474;-88
2023/10/29 04:33:28;;;;;;;0.63;0.50;;;22.30;58.70;;;;;;6053955;23;88387;-89
2023/10/29 04:35:54;;;;;;;0.50;0.50;;;22.20;58.60;;;;;;6055765;23;87678;-88
2023/10/29 04:38:19;;;;;;;0.63;0.63;;;22.20;58.70;;;;;;6054742;23;90117;-89
2023/10/29 04:40:45;;;;;;;1.17;0.82;;;22.20;58.60;;;;;;6053819;23;88349;-89
2023/10/29 04:43:11;;;;;;;0.82;0.57;;;22.20;58.70;;;;;;6053427;23;88515;-89
2023/10/29 04:45:37;;;;;;;0.50;0.50;;;22.20;58.70;;;;;;6054113;23;89173;-89
2023/10/29 04:48:03;;;;;;;1.15;0.70;;;22.20;58.60;;;;;;6053641;23;89314;-89
2023/10/29 04:50:30;;;;;;;0.82;0.70;;;22.20;58.80;;;;;;6052814;23;87627;-89
2023/10/29 04:52:57;;;;;;;0.68;0.60;;;22.20;58.70;;;;;;6053934;23;89126;-90
2023/10/29 04:55:22;;;;;;;1.67;0.60;;;22.20;58.80;;;;;;6054407;23;90372;-88
2023/10/29 04:57:48;;;;;;;0.63;0.60;;;22.20;58.70;;;;;;6053984;23;89567;-89
2023/10/29 05:00:26;;;;;;;1.80;0.60;;;22.20;58.70;;;;;;6052835;23;87484;-89
2023/10/29 05:02:51;;;;;;;0.60;0.57;;;22.20;58.70;;;;;;6059431;23;95012;-88
2023/10/29 05:05:17;;;;;;;0.52;0.50;;;22.20;58.60;;;;;;6059271;23;90375;-88
2023/10/29 05:07:44;;;;;;;0.70;0.60;;;22.20;58.60;;;;;;6032158;23;90631;-88
2023/10/29 05:10:11;;;;;;;0.75;0.52;;;22.20;58.50;;;;;;6075420;23;87006;-89
2023/10/29 05:12:37;;;;;;;0.60;0.60;;;22.20;58.50;;;;;;6057240;23;89379;-89
2023/10/29 05:15:03;;;;;;;0.60;0.60;;;22.20;58.60;;;;;;6079670;23;87886;-88
2023/10/29 05:17:29;;;;;;;1.33;0.70;;;22.20;58.60;;;;;;6055545;23;91241;-88
2023/10/29 05:19:55;;;;;;;0.80;0.63;;;22.20;58.90;;;;;;6053034;23;87435;-90
2023/10/29 05:22:21;;;;;;;0.80;0.60;;;22.20;58.80;;;;;;6054588;23;86688;-88
2023/10/29 05:24:47;;;;;;;1.20;1.08;;;22.20;58.70;;;;;;6055366;23;88506;-88
2023/10/29 05:27:13;;;;;;;0.80;0.65;;;22.20;58.60;;;;;;6043414;23;90488;-88
2023/10/29 05:29:38;;;;;;;0.40;0.40;;;22.20;58.80;;;;;;6052595;23;88896;-87
2023/10/29 05:32:04;;;;;;;1.15;0.75;;;22.20;58.90;;;;;;6056621;23;86960;-86
2023/10/29 05:34:30;;;;;;;1.52;0.52;;;22.20;58.80;;;;;;6053943;23;89686;-86
2023/10/29 05:36:56;;;;;;;7.10;1.95;;;22.20;58.80;;;;;;6052474;23;90120;-89
2023/10/29 05:39:21;;;;;;;10.38;3.08;;;22.20;58.70;;;;;;6064672;23;88207;-91
2023/10/29 05:41:47;;;;;;;7.30;2.65;;;22.20;58.80;;;;;;6088443;23;87277;-89
2023/10/29 05:44:25;;;;;;;6.60;2.13;;;22.20;58.90;;;;;;6059860;23;90741;-87
2023/10/29 05:46:51;;;;;;;6.82;2.05;;;22.20;58.80;;;;;;6084661;23;87154;-88
2023/10/29 05:49:17;;;;;;;5.05;1.50;;;22.20;58.80;;;;;;6057131;23;87310;-87
2023/10/29 05:51:43;;;;;;;4.20;1.42;;;22.20;59.00;;;;;;6043595;23;88521;-88
2023/10/29 05:54:09;;;;;;;6.70;2.03;;;22.20;58.90;;;;;;6033597;23;92165;-87
2023/10/29 05:56:34;;;;;;;6.18;1.70;;;22.20;58.70;;;;;;6061800;23;90647;-89
2023/10/29 05:59:00;;;;;;;7.03;2.13;;;22.20;58.80;;;;;;6030729;23;87778;-89
2023/10/29 06:01:26;;;;;;;5.13;1.67;;;22.20;58.90;;;;;;6053656;23;89465;-89
2023/10/29 06:03:51;;;;;;;9.07;1.98;;;22.20;58.70;;;;;;6085114;23;88564;-90
2023/10/29 06:06:17;;;;;;;5.18;1.70;;;22.20;58.70;;;;;;6075570;23;87478;-88
2023/10/29 06:08:42;;;;;;;6.47;1.90;;;22.20;58.60;;;;;;6058591;23;87338;-88
2023/10/29 06:11:08;;;;;;;4.53;1.48;;;22.20;58.60;;;;;;6059845;23;89385;-89
2023/10/29 06:13:34;;;;;;;6.07;1.90;;;22.20;58.50;;;;;;6061954;23;88733;-88
2023/10/29 06:15:59;;;;;;;6.95;2.08;;;22.10;58.60;;;;;;6056173;23;87534;-88
2023/10/29 06:18:25;;;;;;;3.17;1.35;;;22.10;58.70;;;;;;6045837;23;89193;-88
2023/10/29 06:20:53;;;;;;;3.55;1.67;;;22.10;58.60;;;;;;6055585;23;88639;-89
2023/10/29 06:23:20;;;;;;;4.70;1.40;;;22.20;58.70;;;;;;6056048;23;89882;-89
2023/10/29 06:25:45;;;;;;;7.22;1.95;;;22.10;58.70;;;;;;6064800;23;87544;-88
2023/10/29 06:28:23;;;;;;;4.70;1.58;;;22.10;58.80;;;;;;6054545;23;87799;-89
2023/10/29 06:30:48;;;;;;;6.82;1.70;;;22.10;58.80;;;;;;6058388;23;87813;-89
2023/10/29 06:33:14;;;;;;;6.45;2.08;;;22.10;58.80;;;;;;6054778;23;89222;-89
2023/10/29 06:35:40;;;;;;;5.47;1.50;;;22.10;58.90;;;;;;6054944;23;90656;-89
2023/10/29 06:38:06;;;;;;;2.78;1.55;;;22.10;58.80;;;;;;6055328;23;87588;-87
2023/10/29 06:40:32;;;;;;;4.78;1.70;;;22.10;58.80;;;;;;6052883;23;89122;-89
2023/10/29 06:42:57;;;;;;;6.88;2.10;;;22.10;58.80;;;;;;6055796;23;88643;-88
2023/10/29 06:45:23;;;;;;;5.80;1.70;;;22.10;58.70;;;;;;6057323;23;89991;-88
2023/10/29 06:47:49;;;;;;;2.22;1.30;;;22.10;58.70;;;;;;6053420;23;87629;-87
2023/10/29 06:50:15;;;;;;;7.05;1.83;;;22.10;58.90;;;;;;6054902;23;89446;-87
2023/10/29 06:52:40;;;;;;;11.70;2.47;;;22.10;58.80;;;;;;6078962;23;91009;-87
2023/10/29 06:55:08;;;;;;;5.20;1.80;;;22.10;58.90;;;;;;6055659;23;87977;-88
2023/10/29 06:57:35;;;;;;;7.80;1.83;;;22.10;58.90;;;;;;6057139;23;87694;-89
2023/10/29 07:00:01;;;;;;;8.32;2.65;;;22.10;58.80;;;;;;6054603;23;86652;-89
2023/10/29 07:02:27;;;;;;;10.32;2.90;;;22.10;58.90;;;;;;6056542;23;87434;-88
2023/10/29 07:04:53;;;;;;;9.10;3.28;;;22.10;58.90;;;;;;6053033;23;89353;-88
2023/10/29 07:07:18;;;;;;;7.70;2.75;;;22.10;59.00;;;;;;6051826;23;88739;-87
2023/10/29 07:10:01;;;;;;;8.73;2.40;;;22.10;59.00;;;;;;6054061;23;89814;-88
2023/10/29 07:12:27;;;;;;;11.57;3.45;;;22.10;59.30;;;;;;6056125;23;87263;-89
2023/10/29 07:14:53;;;;;;;5.60;2.65;;;22.10;59.40;;;;;;6051508;23;89491;-88
2023/10/29 07:17:18;;;;;;;8.82;2.85;;;22.10;59.60;;;;;;6053559;23;87309;-87
2023/10/29 07:19:44;;;;;;;12.35;3.85;;;22.10;59.50;;;;;;6058740;23;87326;-89
2023/10/29 07:22:10;;;;;;;23.60;4.55;;;22.20;59.10;;;;;;6046746;23;90398;-88
2023/10/29 07:24:36;;;;;;;20.83;4.78;;;22.20;59.10;;;;;;6057228;23;90248;-87
2023/10/29 07:27:02;;;;;;;18.70;5.18;;;22.20;58.90;;;;;;6058859;23;87052;-88
2023/10/29 07:29:28;;;;;;;14.52;3.70;;;22.20;58.90;;;;;;6057609;23;88346;-85
2023/10/29 07:31:53;;;;;;;14.85;4.07;;;22.20;59.20;;;;;;6058495;23;89231;-86
2023/10/29 07:34:19;;;;;;;17.33;4.30;;;22.20;59.10;;;;;;6057936;23;90996;-88
2023/10/29 07:36:45;;;;;;;17.65;4.40;;;22.20;58.90;;;;;;6058384;23;87433;-87
2023/10/29 07:39:11;;;;;;;15.43;4.40;;;22.20;58.90;;;;;;6056292;23;88939;-87
2023/10/29 07:41:36;;;;;;;17.98;5.22;;;22.20;58.90;;;;;;6057486;23;90563;-86
2023/10/29 07:44:02;;;;;;;17.75;4.95;;;22.20;59.00;;;;;;6059242;23;87675;-86
2023/10/29 07:46:28;;;;;;;22.45;5.85;;;22.20;59.00;;;;;;6055668;23;87519;-86
2023/10/29 07:49:03;;;;;;;14.80;3.88;;;22.20;58.60;;;;;;6058330;23;86658;-86
2023/10/29 07:51:29;;;;;;;14.32;4.50;;;22.30;58.00;;;;;;6059162;23;87770;-85
2023/10/29 07:53:54;;;;;;;17.15;4.63;;;22.30;57.00;;;;;;6058196;23;87596;-85
2023/10/29 07:56:20;;;;;;;21.17;4.45;;;22.20;57.90;;;;;;6058803;23;88386;-84
2023/10/29 07:58:47;;;;;;;17.27;5.40;;;22.20;57.20;;;;;;6055484;23;88083;-84
2023/10/29 08:01:14;;;;;;;14.68;4.03;;;22.30;57.30;;;;;;6058297;23;87776;-86
2023/10/29 08:03:41;;;;;;;20.98;4.68;;;22.30;57.70;;;;;;6058191;23;90779;-87
2023/10/29 08:06:07;;;;;;;16.70;4.55;;;22.30;58.10;;;;;;6049872;23;87220;-85
2023/10/29 08:08:33;;;;;;;14.65;3.58;;;22.30;57.30;;;;;;6075035;23;87304;-87
2023/10/29 08:10:59;;;;;;;13.48;3.78;;;22.30;56.30;;;;;;6059389;23;87739;-85
2023/10/29 08:13:24;;;;;;;19.45;5.05;;;22.30;56.00;;;;;;6045183;23;90277;-85
2023/10/29 08:15:50;;;;;;;14.98;4.13;;;22.30;56.50;;;;;;6056141;23;87740;-84
2023/10/29 08:18:16;;;;;;;13.75;4.00;;;22.30;57.00;;;;;;6054979;23;87294;-84
2023/10/29 08:20:43;;;;;;;8.50;2.90;;;22.30;55.70;;;;;;6057485;23;89888;-85
2023/10/29 08:23:10;;;;;;;13.05;3.05;;;22.30;55.30;;;;;;6061934;23;88238;-84
2023/10/29 08:25:36;;;;;;;14.75;3.58;;;22.30;55.40;;;;;;6059955;23;87302;-86
2023/10/29 08:28:02;;;;;;;12.52;3.70;;;22.30;55.90;;;;;;6059603;23;87749;-84
2023/10/29 08:30:36;;;;;;;10.02;3.47;;;22.30;55.80;;;;;;6062242;23;87996;-85
2023/10/29 08:33:02;;;;;;;10.40;3.13;;;22.30;56.60;;;;;;6058609;23;90031;-85
2023/10/29 08:35:28;;;;;;;11.55;3.25;;;22.30;56.30;;;;;;6059999;23;87270;-89
2023/10/29 08:37:54;;;;;;;11.68;3.15;;;22.40;56.00;;;;;;6056351;23;89517;-85
2023/10/29 08:40:19;;;;;;;11.25;2.90;;;22.40;55.90;;;;;;6058343;23;87369;-85
2023/10/29 08:42:45;;;;;;;6.70;2.58;;;22.40;55.80;;;;;;6058406;23;88116;-85
2023/10/29 08:45:12;;;;;;;10.07;2.45;;;22.40;55.50;;;;;;6055474;23;88139;-85
2023/10/29 08:47:38;;;;;;;7.07;2.40;;;22.40;55.90;;;;;;6057886;23;87368;-87
2023/10/29 08:50:06;;;;;;;7.65;2.65;;;22.50;55.20;;;;;;6063137;23;88928;-90
2023/10/29 08:52:31;;;;;;;5.28;2.30;;;22.40;55.20;;;;;;6060582;23;89283;-91
2023/10/29 08:54:57;;;;;;;6.78;2.38;;;22.50;55.10;;;;;;6059736;23;87761;-91
2023/10/29 08:57:23;;;;;;;7.78;2.55;;;22.50;55.10;;;;;;6057597;23;87949;-86
2023/10/29 08:59:49;;;;;;;8.68;2.15;;;22.50;55.00;;;;;;6058783;23;88490;-89
2023/10/29 09:02:14;;;;;;;8.98;2.72;;;22.50;55.00;;;;;;6061525;23;90353;-89
2023/10/29 09:04:40;;;;;;;5.85;2.08;;;22.50;55.10;;;;;;6039462;23;87651;-87
2023/10/29 09:07:07;;;;;;;7.90;2.10;;;22.50;55.40;;;;;;6059135;23;87417;-87
2023/10/29 09:09:33;;;;;;;5.68;1.85;;;22.50;55.80;;;;;;6047777;23;91460;-90
2023/10/29 09:11:58;;;;;;;6.05;2.22;;;22.50;55.70;;;;;;6057087;23;90445;-87
2023/10/29 09:14:32;;;;;;;5.88;1.67;;;22.50;55.50;;;;;;6057893;23;87255;-87
2023/10/29 09:16:57;;;;;;;4.95;1.58;;;22.50;54.80;;;;;;6056530;23;91975;-85
2023/10/29 09:19:23;;;;;;;5.30;2.15;;;22.50;54.70;;;;;;6055467;23;90907;-86
2023/10/29 09:21:49;;;;;;;3.75;1.60;;;22.50;54.30;;;;;;6059036;23;87687;-86
2023/10/29 09:24:15;;;;;;;7.00;1.67;;;22.50;54.20;;;;;;6059126;23;87073;-90
2023/10/29 09:26:41;;;;;;;5.47;1.73;;;22.50;54.50;;;;;;6058296;23;89254;-87
2023/10/29 09:29:10;;;;;;;6.40;1.80;;;22.50;55.30;;;;;;6059274;23;88109;-87
2023/10/29 09:31:36;;;;;;;17.95;4.20;;;22.40;56.30;;;;;;6058103;23;87713;-86
2023/10/29 09:34:03;;;;;;;6.40;2.33;;;22.50;57.50;;;;;;6058217;23;89105;-88
2023/10/29 09:36:29;;;;;;;11.45;3.30;;;22.50;57.00;;;;;;6059091;23;87684;-87
2023/10/29 09:38:55;;;;;;;10.20;2.90;;;22.50;56.90;;;;;;6033969;23;87631;-87
2023/10/29 09:41:20;;;;;;;7.72;2.08;;;22.50;57.10;;;;;;6060857;23;88083;-86
2023/10/29 09:43:46;;;;;;;6.88;2.65;;;22.50;57.40;;;;;;6058003;23;87563;-86
2023/10/29 09:46:12;;;;;;;8.23;2.72;;;22.50;57.80;;;;;;6061531;23;87138;-87
2023/10/29 09:48:39;;;;;;;8.57;2.42;;;22.50;57.30;;;;;;6059606;23;90588;-87
2023/10/29 09:51:08;;;;;;;8.82;2.50;;;22.50;57.10;;;;;;6060704;23;89956;-90
2023/10/29 09:53:51;;;;;;;;;;;22.50;56.40;;;;;;6061666;23;87527;-89
2023/10/29 09:56:17;;;;;;;4.50;1.60;;;22.50;56.10;;;;;;6062072;23;89302;-90
2023/10/29 09:58:43;;;;;;;6.32;1.85;;;22.60;56.60;;;;;;6059616;23;91356;-90
2023/10/29 10:01:09;;;;;;;8.02;2.13;;;22.60;57.30;;;;;;6057671;23;89477;-87
2023/10/29 10:03:35;;;;;;;4.50;1.85;;;22.60;57.80;;;;;;6058045;23;87310;-90
2023/10/29 10:06:02;;;;;;;6.07;1.73;;;22.60;57.60;;;;;;6050372;23;87672;-88
2023/10/29 10:08:29;;;;;;;8.50;2.53;;;22.60;58.30;;;;;;6059510;23;90403;-89
2023/10/29 10:10:58;;;;;;;7.32;2.20;;;22.60;58.40;;;;;;6063593;23;87534;-89
2023/10/29 10:13:38;;;;;;;7.63;2.45;;;22.60;58.50;;;;;;6062235;23;87434;-91
2023/10/29 10:16:19;;;;;;;6.65;1.92;;;22.60;58.60;;;;;;6060736;23;88375;-88
2023/10/29 10:18:55;;;;;;;9.93;2.58;;;22.60;58.80;;;;;;6058865;23;88435;-87
2023/10/29 10:21:23;;;;;;;15.70;4.88;;;22.60;58.60;;;;;;6060394;23;87274;-87
2023/10/29 10:23:55;;;;;;;23.35;6.05;;;22.60;58.30;;;;;;6057178;23;88731;-88
2023/10/29 10:26:28;;;;;;;30.10;8.10;;;22.60;57.70;;;;;;6062281;23;87609;-88
2023/10/29 10:28:55;;;;;;;29.45;6.90;;;22.60;57.30;;;;;;6059928;23;90817;-89
2023/10/29 10:31:22;;;;;;;24.02;5.43;;;22.60;56.40;;;;;;6061896;23;87389;-88
2023/10/29 10:33:48;;;;;;;28.85;5.43;;;22.60;56.10;;;;;;6061169;23;87397;-86
2023/10/29 10:36:14;;;;;;;16.48;4.93;;;22.60;55.80;;;;;;6059214;23;87429;-86
2023/10/29 10:38:52;;;;;;;25.77;5.80;;;22.60;57.00;;;;;;6059735;23;87627;-86
2023/10/29 10:41:18;;;;;;;15.68;4.32;;;22.60;56.90;;;;;;6064150;23;90165;-90
2023/10/29 10:43:44;;;;;;;12.90;4.15;;;22.50;56.30;;;;;;6062836;23;87208;-92
2023/10/29 10:46:13;;;;;;;15.45;4.32;;;22.60;56.80;;;;;;6062733;23;88324;-90
2023/10/29 10:48:41;;;;;;;14.00;3.92;;;22.60;57.00;;;;;;6061563;23;90851;-92
2023/10/29 10:51:11;;;;;;;16.93;4.60;;;22.50;56.90;;;;;;6046300;23;89977;-89
2023/10/29 10:53:39;;;;;;;15.05;4.25;;;22.50;56.70;;;;;;6062454;23;88109;-90
2023/10/29 10:56:08;;;;;;;18.25;4.60;;;22.50;56.90;;;;;;6064611;23;88934;-91
2023/10/29 10:58:36;;;;;;;18.73;5.97;;;22.50;57.30;;;;;;6054043;23;90218;-91
2023/10/29 11:01:03;;;;;;;13.45;4.30;;;22.50;57.40;;;;;;6063038;23;90049;-90
2023/10/29 11:03:32;;;;;;;13.73;3.88;;;22.50;57.60;;;;;;6053138;23;87318;-90
2023/10/29 11:05:58;;;;;;;13.73;4.53;;;22.50;57.80;;;;;;6064584;23;88017;-89
2023/10/29 11:08:41;;;;;;;17.38;4.38;;;22.60;57.70;;;;;;6057599;23;89820;-89
2023/10/29 11:11:08;;;;;;;15.93;3.95;;;22.60;57.70;;;;;;6062419;23;94200;-88
2023/10/29 11:13:34;;;;;;;14.65;3.80;;;22.60;57.90;;;;;;6059154;23;88034;-89
2023/10/29 11:16:01;;;;;;;11.40;3.10;;;22.60;57.70;;;;;;6059623;23;89714;-86
2023/10/29 11:18:29;;;;;;;12.10;3.78;;;22.60;57.80;;;;;;6059797;23;90314;-88
2023/10/29 11:20:56;;;;;;;11.13;3.15;;;22.60;57.40;;;;;;6058114;23;90099;-87
2023/10/29 11:23:24;;;;;;;9.57;3.55;;;22.60;57.30;;;;;;6082218;23;87435;-87
2023/10/29 11:25:49;;;;;;;15.15;3.95;;;22.60;57.60;;;;;;6058935;23;89202;-87
2023/10/29 11:28:24;;;;;;;13.57;3.60;;;22.60;57.80;;;;;;6059854;23;87500;-86
2023/10/29 11:31:16;;;;;;;10.35;3.42;;;22.60;58.10;;;;;;6061364;23;86713;-92
2023/10/29 11:33:45;;;;;;;9.00;3.10;;;22.70;58.40;;;;;;6058327;23;87329;-87
2023/10/29 11:36:33;;;;;;;8.50;3.08;;;22.60;58.70;;;;;;6061876;23;87238;-88
2023/10/29 11:39:23;;;;;;;11.60;3.90;;;22.70;59.00;;;;;;6062648;23;90324;-90
2023/10/29 11:41:49;;;;;;;12.93;3.92;;;22.70;58.50;;;;;;6061630;23;90589;-89
2023/10/29 11:44:20;;;;;;;9.90;2.70;;;22.70;58.40;;;;;;6060195;23;87555;-87
2023/10/29 11:46:58;;;;;;;12.95;3.13;;;22.70;58.40;;;;;;6063959;23;89048;-91
2023/10/29 11:49:27;;;;;;;8.07;3.28;;;22.60;58.50;;;;;;6050373;23;88891;-91
2023/10/29 11:51:57;;;;;;;;;;;22.70;58.60;;;;;;6067276;23;87187;-91
2023/10/29 11:54:23;;;;;;;12.85;3.42;;;22.70;58.60;;;;;;6053710;23;87453;-89
2023/10/29 11:56:52;;;;;;;11.18;3.42;;;22.70;58.80;;;;;;6063286;23;89132;-91
2023/10/29 11:59:18;;;;;;;6.70;2.63;;;22.70;58.90;;;;;;6063698;23;90750;-89
2023/10/29 12:01:44;;;;;;;8.02;2.65;;;22.70;58.90;;;;;;6051586;23;89985;-88
2023/10/29 12:04:21;;;;;;;8.45;2.83;;;22.70;58.90;;;;;;6058923;23;88477;-87
2023/10/29 12:06:48;;;;;;;8.55;2.70;;;22.70;58.90;;;;;;6060043;23;89032;-89
2023/10/29 12:09:18;;;;;;;9.13;3.05;;;22.70;58.60;;;;;;6059583;23;89804;-89
2023/10/29 12:11:48;;;;;;;9.07;2.65;;;22.80;58.90;;;;;;6065342;23;90116;-91
2023/10/29 12:14:15;;;;;;;8.75;2.95;;;22.80;58.70;;;;;;6059866;23;87627;-88
2023/10/29 12:16:41;;;;;;;8.50;2.97;;;22.80;58.40;;;;;;6058116;23;88151;-89
2023/10/29 12:19:07;;;;;;;7.85;2.40;;;22.90;58.70;;;;;;6059060;23;87481;-88
2023/10/29 12:21:33;;;;;;;7.22;2.63;;;22.90;58.50;;;;;;6057129;23;88526;-87
2023/10/29 12:24:01;;;;;;;9.68;2.88;;;22.90;58.60;;;;;;6057424;23;87266;-87
2023/10/29 12:26:28;;;;;;;7.50;2.28;;;22.90;58.40;;;;;;6060333;23;86848;-86
2023/10/29 12:28:54;;;;;;;10.38;2.83;;;22.90;58.60;;;;;;6058251;23;89250;-88
2023/10/29 12:31:39;;;;;;;;;;;;;;;;;;;;;
2023/10/29 12:34:05;;;;;;;7.90;2.70;;;22.90;58.40;;;;;;6060452;23;87622;-88
2023/10/29 12:36:30;;;;;;;8.32;2.67;;;22.90;58.40;;;;;;6056753;23;89685;-87
2023/10/29 12:38:56;;;;;;;7.82;2.75;;;22.90;58.20;;;;;;6056815;23;90104;-88
2023/10/29 12:41:23;;;;;;;11.05;2.70;;;23.00;58.30;;;;;;6061913;23;88081;-87
2023/10/29 12:43:52;;;;;;;5.88;2.40;;;22.90;58.40;;;;;;6057917;23;87594;-87
2023/10/29 12:46:23;;;;;;;6.45;2.33;;;22.90;58.30;;;;;;6065569;23;87439;-88